Terminal Aerodrome Forecast
Issued by NWS Twin Cities, MN

Home | Current Version | Previous Version | Graphics & Text | Print | Product List | Glossary On
Versions: 1 2 3 4 5 6 7 8 9 10 11 12 13 14 15
000
FTUS43 KMPX 261139
TAFSTC
TAF
KSTC 261139Z 2612/2712 33004KT P6SM OVC005
     FM261400 03008KT P6SM BKN010
     FM261800 36005KT P6SM SCT012 BKN040
     FM270000 31003KT P6SM SCT040 SCT250
     FM270600 27004KT P6SM SCT250=

USA.gov is the U.S. government's official web portal to all federal, state and local government web resources and services.